createdAt,value
2019-06-27T00:01:34.959Z,100.00
2019-06-27T00:04:05.403Z,100.00
2019-06-27T00:06:36.649Z,100.00
2019-06-27T00:09:09.787Z,100.00
2019-06-27T00:11:41.038Z,100.00
2019-06-27T00:14:11.545Z,100.00
2019-06-27T00:16:44.408Z,100.00
2019-06-27T00:19:14.869Z,100.00
2019-06-27T00:21:46.098Z,100.00
2019-06-27T00:24:16.887Z,100.00
2019-06-27T00:26:56.585Z,100.00
2019-06-27T00:29:19.587Z,100.00
2019-06-27T00:31:50.072Z,100.00
2019-06-27T00:34:20.468Z,100.00
2019-06-27T00:36:50.716Z,100.00
2019-06-27T00:39:21.204Z,100.00
2019-06-27T00:41:51.626Z,100.00
2019-06-27T00:44:22.486Z,100.00
2019-06-27T00:46:53.255Z,100.00
2019-06-27T00:49:23.720Z,100.00
2019-06-27T00:51:54.627Z,100.00
2019-06-27T00:54:27.959Z,100.00
2019-06-27T00:57:13.564Z,100.00
2019-06-27T00:59:32.884Z,100.00
2019-06-27T01:02:03.596Z,100.00
2019-06-27T01:04:34.076Z,100.00
2019-06-27T01:07:05.729Z,100.00
2019-06-27T01:09:36.316Z,100.00
2019-06-27T01:12:07.601Z,100.00
2019-06-27T01:14:38.675Z,100.00
2019-06-27T01:17:09.261Z,100.00
2019-06-27T01:19:40.721Z,100.00
2019-06-27T01:22:11.159Z,100.00
2019-06-27T01:24:41.709Z,100.00
2019-06-27T01:27:12.529Z,100.00
2019-06-27T01:29:46.083Z,100.00
2019-06-27T01:32:16.679Z,100.00
2019-06-27T01:34:47.249Z,100.00
2019-06-27T01:37:17.748Z,100.00
2019-06-27T01:39:48.662Z,100.00
2019-06-27T01:42:19.200Z,100.00
2019-06-27T01:45:14.935Z,100.00
2019-06-27T01:47:45.546Z,100.00
2019-06-27T01:50:16.191Z,100.00
2019-06-27T01:52:47.096Z,100.00
2019-06-27T01:55:19.009Z,100.00
2019-06-27T01:57:53.775Z,100.00
2019-06-27T02:00:25.448Z,100.00
2019-06-27T02:02:56.978Z,100.00
2019-06-27T02:05:28.725Z,100.00
2019-06-27T02:08:00.190Z,100.00
2019-06-27T02:10:31.008Z,100.00
2019-06-27T02:13:01.511Z,100.00
2019-06-27T02:15:31.953Z,100.00
2019-06-27T02:18:02.408Z,100.00
2019-06-27T02:20:33.635Z,100.00
2019-06-27T02:23:04.054Z,100.00
2019-06-27T02:25:34.479Z,100.00
2019-06-27T02:28:04.966Z,100.00
2019-06-27T02:30:41.992Z,100.00
2019-06-27T02:33:12.548Z,100.00
2019-06-27T02:35:43.055Z,100.00
2019-06-27T02:38:13.473Z,100.00
2019-06-27T02:40:43.956Z,100.00
2019-06-27T02:43:14.445Z,100.00
2019-06-27T02:45:44.760Z,100.00
2019-06-27T02:48:15.931Z,100.00
2019-06-27T02:50:46.222Z,100.00
2019-06-27T02:53:18.059Z,100.00
2019-06-27T02:55:51.902Z,100.00
2019-06-27T02:58:31.272Z,100.00
2019-06-27T03:00:54.414Z,100.00
2019-06-27T03:03:25.812Z,100.00
2019-06-27T03:05:57.432Z,100.00
2019-06-27T03:08:28.318Z,100.00
2019-06-27T03:10:58.927Z,100.00
2019-06-27T03:13:29.384Z,100.00
2019-06-27T03:16:00.125Z,100.00
2019-06-27T03:18:30.836Z,100.00
2019-06-27T03:21:01.238Z,100.00
2019-06-27T03:23:31.692Z,100.00
2019-06-27T03:26:03.120Z,100.00
2019-06-27T03:28:51.082Z,100.00
2019-06-27T03:31:06.025Z,100.00
2019-06-27T03:33:36.566Z,100.00
2019-06-27T03:36:07.192Z,100.00
2019-06-27T03:38:37.603Z,100.00
2019-06-27T03:41:09.024Z,100.00
2019-06-27T03:43:39.592Z,100.00
2019-06-27T03:46:10.168Z,100.00
2019-06-27T03:48:49.614Z,100.00
2019-06-27T03:51:26.315Z,100.00
2019-06-27T03:53:56.763Z,100.00
2019-06-27T03:56:27.211Z,100.00
2019-06-27T03:59:11.570Z,100.00
2019-06-27T04:01:29.866Z,100.00
2019-06-27T04:04:00.390Z,100.00
2019-06-27T04:06:30.829Z,100.00
2019-06-27T04:09:01.468Z,100.00
2019-06-27T04:11:32.127Z,100.00
2019-06-27T04:14:02.616Z,100.00
2019-06-27T04:16:33.384Z,100.00
2019-06-27T04:19:04.010Z,100.00
2019-06-27T04:21:34.446Z,100.00
2019-06-27T04:24:04.967Z,100.00
2019-06-27T04:26:36.255Z,100.00
2019-06-27T04:29:06.845Z,100.00
2019-06-27T04:31:37.431Z,100.00
2019-06-27T04:34:08.121Z,100.00
2019-06-27T04:36:38.604Z,100.00
2019-06-27T04:39:09.088Z,100.00
2019-06-27T04:41:39.553Z,100.00
2019-06-27T04:44:09.978Z,100.00
2019-06-27T04:46:40.522Z,100.00
2019-06-27T04:49:13.482Z,100.00
2019-06-27T04:51:43.126Z,100.00
2019-06-27T04:54:13.584Z,100.00
2019-06-27T04:56:44.026Z,100.00
2019-06-27T04:59:14.454Z,100.00
2019-06-27T05:01:44.980Z,100.00
2019-06-27T05:04:15.496Z,100.00
2019-06-27T05:06:45.946Z,100.00
2019-06-27T05:09:16.422Z,100.00
2019-06-27T05:11:46.886Z,100.00
2019-06-27T05:14:17.302Z,100.00
2019-06-27T05:16:47.816Z,100.00
2019-06-27T05:19:18.231Z,100.00
2019-06-27T05:21:48.804Z,100.00
2019-06-27T05:24:19.287Z,100.00
2019-06-27T05:26:49.701Z,100.00
2019-06-27T05:29:20.147Z,100.00
2019-06-27T05:31:50.776Z,100.00
2019-06-27T05:34:21.324Z,100.00
2019-06-27T05:36:51.777Z,100.00
2019-06-27T05:39:22.245Z,100.00
2019-06-27T05:41:52.790Z,100.00
2019-06-27T05:44:23.266Z,99.22
2019-06-27T05:46:53.712Z,98.71
2019-06-27T05:49:24.215Z,99.50
2019-06-27T05:51:54.720Z,97.07
2019-06-27T05:54:25.127Z,98.57
2019-06-27T05:56:55.568Z,97.27
2019-06-27T05:59:26.023Z,99.79
2019-06-27T06:01:56.459Z,99.94
2019-06-27T06:04:26.975Z,96.70
2019-06-27T06:06:57.691Z,95.66
2019-06-27T06:09:28.194Z,93.69
2019-06-27T06:11:58.650Z,91.26
2019-06-27T06:14:29.102Z,90.13
2019-06-27T06:16:59.571Z,90.81
2019-06-27T06:19:30.043Z,89.42
2019-06-27T06:22:00.524Z,92.69
2019-06-27T06:24:30.963Z,92.90
2019-06-27T06:27:01.346Z,91.37
2019-06-27T06:29:31.883Z,88.22
2019-06-27T06:32:02.730Z,86.11
2019-06-27T06:34:33.169Z,86.73
2019-06-27T06:37:03.710Z,88.15
2019-06-27T06:39:34.163Z,89.29
2019-06-27T06:42:04.689Z,88.27
2019-06-27T06:44:35.180Z,88.48
2019-06-27T06:47:05.599Z,87.75
2019-06-27T06:49:36.136Z,84.96
2019-06-27T06:52:06.582Z,86.44
2019-06-27T06:54:36.988Z,85.02
2019-06-27T06:57:07.527Z,85.19
2019-06-27T06:59:37.949Z,83.75
2019-06-27T07:02:08.567Z,83.50
2019-06-27T07:04:39.108Z,81.76
2019-06-27T07:07:13.029Z,82.81
2019-06-27T07:09:41.679Z,83.44
2019-06-27T07:12:12.203Z,83.35
2019-06-27T07:14:42.867Z,82.35
2019-06-27T07:17:13.279Z,80.90
2019-06-27T07:19:43.783Z,79.43
2019-06-27T07:22:14.183Z,80.13
2019-06-27T07:24:44.644Z,79.37
2019-06-27T07:27:15.173Z,73.79
2019-06-27T07:29:45.560Z,73.79
2019-06-27T07:32:15.977Z,68.15
2019-06-27T07:34:46.422Z,73.67
2019-06-27T07:37:16.891Z,71.79
2019-06-27T07:39:47.303Z,67.38
2019-06-27T07:42:17.824Z,68.35
2019-06-27T07:44:48.225Z,68.35
2019-06-27T07:47:18.678Z,68.10
2019-06-27T07:49:49.130Z,66.63
2019-06-27T07:52:19.547Z,66.42
2019-06-27T07:54:49.954Z,67.08
2019-06-27T07:57:20.497Z,67.23
2019-06-27T07:59:50.904Z,68.36
2019-06-27T08:02:21.306Z,69.83
2019-06-27T08:04:51.994Z,67.83
2019-06-27T08:07:22.434Z,66.37
2019-06-27T08:09:52.857Z,66.15
2019-06-27T08:12:23.493Z,63.93
2019-06-27T08:14:53.916Z,63.91
2019-06-27T08:17:24.359Z,68.60
2019-06-27T08:19:54.815Z,62.96
2019-06-27T08:22:25.243Z,58.31
2019-06-27T08:24:55.652Z,57.69
2019-06-27T08:27:26.130Z,57.50
2019-06-27T08:29:56.552Z,56.24
2019-06-27T08:32:26.978Z,56.97
2019-06-27T08:34:57.432Z,57.82
2019-06-27T08:37:27.973Z,58.73
2019-06-27T08:40:02.941Z,58.70
2019-06-27T08:42:33.335Z,57.99
2019-06-27T08:45:03.902Z,59.18
2019-06-27T08:47:34.403Z,57.26
2019-06-27T08:50:05.639Z,55.88
2019-06-27T08:52:36.072Z,55.18
2019-06-27T08:55:06.909Z,58.15
2019-06-27T08:57:37.317Z,49.85
2019-06-27T09:00:08.649Z,54.02
2019-06-27T09:02:39.224Z,51.84
2019-06-27T09:05:09.945Z,52.84
2019-06-27T09:07:40.387Z,51.84
2019-06-27T09:10:11.697Z,49.78
2019-06-27T09:12:42.123Z,50.69
2019-06-27T09:15:13.781Z,51.23
2019-06-27T09:17:44.281Z,47.91
2019-06-27T09:20:15.530Z,42.05
2019-06-27T09:22:46.078Z,46.89
2019-06-27T09:25:16.604Z,48.01
2019-06-27T09:27:47.047Z,46.87
2019-06-27T09:30:17.728Z,46.01
2019-06-27T09:32:48.257Z,46.79
2019-06-27T09:35:19.001Z,45.42
2019-06-27T09:37:49.504Z,46.08
2019-06-27T09:40:20.513Z,45.68
2019-06-27T09:42:50.900Z,44.31
2019-06-27T09:45:21.944Z,44.00
2019-06-27T09:47:52.482Z,41.73
2019-06-27T09:50:23.576Z,42.34
2019-06-27T09:52:54.131Z,42.57
2019-06-27T09:55:25.227Z,41.71
2019-06-27T09:57:56.322Z,41.05
2019-06-27T10:00:27.469Z,44.51
2019-06-27T10:03:00.605Z,45.68
2019-06-27T10:05:31.129Z,45.37
2019-06-27T10:08:02.321Z,41.55
2019-06-27T10:10:33.313Z,46.97
2019-06-27T10:13:03.774Z,42.17
2019-06-27T10:15:34.218Z,41.91
2019-06-27T10:18:04.809Z,42.65
2019-06-27T10:20:35.257Z,43.69
2019-06-27T10:23:06.313Z,39.99
2019-06-27T10:25:38.369Z,41.12
2019-06-27T10:28:09.708Z,43.28
2019-06-27T10:30:40.730Z,44.40
2019-06-27T10:33:11.103Z,45.38
2019-06-27T10:35:41.499Z,46.95
2019-06-27T10:38:12.023Z,45.26
2019-06-27T10:40:42.457Z,43.81
2019-06-27T10:43:12.898Z,44.69
2019-06-27T10:45:43.419Z,43.92
2019-06-27T10:48:13.853Z,43.36
2019-06-27T10:50:46.462Z,42.60
2019-06-27T10:53:16.523Z,42.10
2019-06-27T10:55:46.948Z,43.81
2019-06-27T10:58:17.389Z,40.87
2019-06-27T11:00:47.873Z,41.65
2019-06-27T11:03:18.276Z,38.92
2019-06-27T11:05:48.767Z,39.21
2019-06-27T11:08:19.310Z,39.47
2019-06-27T11:10:49.771Z,39.17
2019-06-27T11:13:20.202Z,41.97
2019-06-27T11:15:50.644Z,42.35
2019-06-27T11:18:21.560Z,39.89
2019-06-27T11:20:52.327Z,39.54
2019-06-27T11:23:23.442Z,42.44
2019-06-27T11:25:54.730Z,39.40
2019-06-27T11:28:25.129Z,33.49
2019-06-27T11:30:56.228Z,33.29
2019-06-27T11:33:32.447Z,33.83
2019-06-27T11:36:01.380Z,35.54
2019-06-27T11:38:31.907Z,35.86
2019-06-27T11:41:02.384Z,40.09
2019-06-27T11:43:32.777Z,43.27
2019-06-27T11:46:03.233Z,39.76
2019-06-27T11:48:33.670Z,40.49
2019-06-27T11:51:04.104Z,37.99
2019-06-27T11:53:34.636Z,38.81
2019-06-27T11:56:05.140Z,37.90
2019-06-27T11:58:35.542Z,36.37
2019-06-27T12:01:06.601Z,36.66
2019-06-27T12:03:48.930Z,37.44
2019-06-27T12:06:10.142Z,37.89
2019-06-27T12:08:40.652Z,39.52
2019-06-27T12:11:11.646Z,39.11
2019-06-27T12:13:42.062Z,38.08
2019-06-27T12:16:13.065Z,38.89
2019-06-27T12:18:44.032Z,39.69
2019-06-27T12:21:15.092Z,39.97
2019-06-27T12:23:46.194Z,38.15
2019-06-27T12:26:16.595Z,39.30
2019-06-27T12:28:47.575Z,40.29
2019-06-27T12:31:20.972Z,38.95
2019-06-27T12:34:05.475Z,40.02
2019-06-27T12:36:22.859Z,39.20
2019-06-27T12:38:53.394Z,39.40
2019-06-27T12:41:24.380Z,40.70
2019-06-27T12:43:55.400Z,40.19
2019-06-27T12:46:26.456Z,38.22
2019-06-27T12:48:56.900Z,38.13
2019-06-27T12:51:27.409Z,37.91
2019-06-27T12:53:58.422Z,38.38
2019-06-27T12:56:29.485Z,40.50
2019-06-27T12:59:00.020Z,40.22
2019-06-27T13:01:30.501Z,41.73
2019-06-27T13:04:00.944Z,39.56
2019-06-27T13:06:32.098Z,39.40
2019-06-27T13:09:03.311Z,41.19
2019-06-27T13:11:34.395Z,41.02
2019-06-27T13:14:05.475Z,43.04
2019-06-27T13:16:35.924Z,44.60
2019-06-27T13:19:06.777Z,41.82
2019-06-27T13:21:37.260Z,42.07
2019-06-27T13:24:08.287Z,41.19
2019-06-27T13:26:38.700Z,44.25
2019-06-27T13:29:09.318Z,43.60
2019-06-27T13:31:39.735Z,43.46
2019-06-27T13:34:10.173Z,44.59
2019-06-27T13:36:41.232Z,45.45
2019-06-27T13:39:11.662Z,45.70
2019-06-27T13:41:42.656Z,44.79
2019-06-27T13:44:13.261Z,42.83
2019-06-27T13:46:43.694Z,44.53
2019-06-27T13:49:14.701Z,43.61
2019-06-27T13:51:45.224Z,44.11
2019-06-27T13:54:16.213Z,42.77
2019-06-27T13:56:47.245Z,43.05
2019-06-27T13:59:17.779Z,42.19
2019-06-27T14:01:48.759Z,44.80
2019-06-27T14:04:19.897Z,45.67
2019-06-27T14:06:50.565Z,46.92
2019-06-27T14:09:23.321Z,45.63
2019-06-27T14:11:53.201Z,46.26
2019-06-27T14:14:24.328Z,44.85
2019-06-27T14:16:55.377Z,46.30
2019-06-27T14:19:26.187Z,45.31
2019-06-27T14:21:58.849Z,43.87
2019-06-27T14:24:29.543Z,44.71
2019-06-27T14:27:00.137Z,42.87
2019-06-27T14:29:30.664Z,43.15
2019-06-27T14:32:01.666Z,44.96
2019-06-27T14:34:32.656Z,45.07
2019-06-27T14:37:03.258Z,43.91
2019-06-27T14:39:34.288Z,41.93
2019-06-27T14:42:04.791Z,40.42
2019-06-27T14:44:35.381Z,40.94
2019-06-27T14:47:05.746Z,41.80
2019-06-27T14:49:36.172Z,41.43
2019-06-27T14:52:06.676Z,41.30
2019-06-27T14:54:37.100Z,40.39
2019-06-27T14:57:07.518Z,40.84
2019-06-27T14:59:38.074Z,42.84
2019-06-27T15:02:08.511Z,41.25
2019-06-27T15:04:38.905Z,41.73
2019-06-27T15:07:11.192Z,40.06
2019-06-27T15:09:42.176Z,40.83
2019-06-27T15:12:12.641Z,40.34
2019-06-27T15:14:43.126Z,41.20
2019-06-27T15:17:13.588Z,40.60
2019-06-27T15:19:44.584Z,39.99
2019-06-27T15:22:15.062Z,39.21
2019-06-27T15:24:45.495Z,39.29
2019-06-27T15:27:16.493Z,37.52
2019-06-27T15:29:46.959Z,35.73
2019-06-27T15:32:17.494Z,36.31
2019-06-27T15:34:48.503Z,36.76
2019-06-27T15:37:19.588Z,35.44
2019-06-27T15:39:50.551Z,35.13
2019-06-27T15:42:21.537Z,35.86
2019-06-27T15:44:52.396Z,37.15
2019-06-27T15:47:22.778Z,38.33
2019-06-27T15:49:53.212Z,42.32
2019-06-27T15:52:23.658Z,44.40
2019-06-27T15:54:54.171Z,46.83
2019-06-27T15:57:24.649Z,46.34
2019-06-27T15:59:55.171Z,47.41
2019-06-27T16:02:25.727Z,49.22
2019-06-27T16:04:56.360Z,49.79
2019-06-27T16:07:26.916Z,48.20
2019-06-27T16:09:57.534Z,48.48
2019-06-27T16:12:28.361Z,46.81
2019-06-27T16:14:58.846Z,47.41
2019-06-27T16:17:29.422Z,48.09
2019-06-27T16:19:59.843Z,49.83
2019-06-27T16:22:30.282Z,48.87
2019-06-27T16:25:00.812Z,48.85
2019-06-27T16:27:31.282Z,49.08
2019-06-27T16:30:02.063Z,49.58
2019-06-27T16:32:32.508Z,49.84
2019-06-27T16:35:02.945Z,49.72
2019-06-27T16:37:33.502Z,48.60
2019-06-27T16:40:13.863Z,49.42
2019-06-27T16:42:44.393Z,50.60
2019-06-27T16:45:15.446Z,50.79
2019-06-27T16:47:46.969Z,50.29
2019-06-27T16:50:18.215Z,50.67
2019-06-27T16:52:48.624Z,50.75
2019-06-27T16:55:20.956Z,52.20
2019-06-27T16:57:51.417Z,51.93
2019-06-27T17:00:22.234Z,52.25
2019-06-27T17:02:52.784Z,52.03
2019-06-27T17:05:23.249Z,51.78
2019-06-27T17:07:53.776Z,52.45
2019-06-27T17:10:24.426Z,53.44
2019-06-27T17:12:54.868Z,53.05
2019-06-27T17:15:25.376Z,54.18
2019-06-27T17:17:55.860Z,53.67
2019-06-27T17:20:26.293Z,54.83
2019-06-27T17:23:15.753Z,53.86
2019-06-27T17:25:46.471Z,54.10
2019-06-27T17:28:16.865Z,53.83
2019-06-27T17:30:47.390Z,54.12
2019-06-27T17:33:17.790Z,54.14
2019-06-27T17:35:48.290Z,54.42
2019-06-27T17:38:18.827Z,55.95
2019-06-27T17:40:49.696Z,55.67
2019-06-27T17:43:20.576Z,54.94
2019-06-27T17:45:51.346Z,60.79
2019-06-27T17:48:21.771Z,60.67
2019-06-27T17:50:52.326Z,60.67
2019-06-27T17:53:22.897Z,63.46
2019-06-27T17:55:53.329Z,64.11
2019-06-27T17:58:23.816Z,65.27
2019-06-27T18:00:54.399Z,65.27
2019-06-27T18:03:24.812Z,62.38
2019-06-27T18:06:14.245Z,61.84
2019-06-27T18:09:03.961Z,63.56
2019-06-27T18:11:53.610Z,61.73
2019-06-27T18:14:44.155Z,63.28
2019-06-27T18:17:34.275Z,64.62
2019-06-27T18:20:23.775Z,64.06
2019-06-27T18:23:14.093Z,64.07
2019-06-27T18:26:03.803Z,64.74
2019-06-27T18:28:53.238Z,69.06
2019-06-27T18:31:42.599Z,66.28
2019-06-27T18:34:32.427Z,67.46
2019-06-27T18:37:29.693Z,70.77
2019-06-27T18:40:12.784Z,69.12
2019-06-27T18:43:02.094Z,69.85
2019-06-27T18:45:51.431Z,71.65
2019-06-27T18:48:40.804Z,71.93
2019-06-27T18:51:29.791Z,73.38
2019-06-27T18:54:19.404Z,72.78
2019-06-27T18:57:08.679Z,72.69
2019-06-27T18:59:58.064Z,73.95
2019-06-27T19:02:47.019Z,74.58
2019-06-27T19:05:36.587Z,76.01
2019-06-27T19:08:26.442Z,80.05
2019-06-27T19:11:16.093Z,81.44
2019-06-27T19:14:05.458Z,81.91
2019-06-27T19:16:54.675Z,82.96
2019-06-27T19:19:46.120Z,82.78
2019-06-27T19:22:52.737Z,83.53
2019-06-27T19:25:43.633Z,85.07
2019-06-27T19:28:32.759Z,85.94
2019-06-27T19:31:22.104Z,84.68
2019-06-27T19:34:11.824Z,85.21
2019-06-27T19:37:01.277Z,84.73
2019-06-27T19:39:50.584Z,84.95
2019-06-27T19:42:40.024Z,86.73
2019-06-27T19:45:29.581Z,87.73
2019-06-27T19:48:21.338Z,90.13
2019-06-27T19:51:10.171Z,92.49
2019-06-27T19:54:04.932Z,92.15
2019-06-27T19:56:54.311Z,93.89
2019-06-27T19:59:43.739Z,93.33
2019-06-27T20:02:33.475Z,88.13
2019-06-27T20:05:22.602Z,92.17
2019-06-27T20:08:19.285Z,90.93
2019-06-27T20:11:02.240Z,90.45
2019-06-27T20:13:51.577Z,91.31
2019-06-27T20:16:40.688Z,90.33
2019-06-27T20:19:29.852Z,90.54
2019-06-27T20:22:19.213Z,91.67
2019-06-27T20:25:08.624Z,93.20
2019-06-27T20:27:58.185Z,95.38
2019-06-27T20:30:47.454Z,96.57
2019-06-27T20:33:37.064Z,95.61
2019-06-27T20:36:26.515Z,93.72
2019-06-27T20:39:16.223Z,94.87
2019-06-27T20:42:05.743Z,93.52
2019-06-27T20:44:55.180Z,89.99
2019-06-27T20:47:44.429Z,86.47
2019-06-27T20:50:33.422Z,90.70
2019-06-27T20:53:22.915Z,92.74
2019-06-27T20:56:12.544Z,94.80
2019-06-27T20:59:02.165Z,95.63
2019-06-27T21:01:51.434Z,96.45
2019-06-27T21:04:40.500Z,98.05
2019-06-27T21:07:30.198Z,99.48
2019-06-27T21:10:21.062Z,99.33
2019-06-27T21:13:10.926Z,98.71
2019-06-27T21:16:00.362Z,98.26
2019-06-27T21:18:50.046Z,100.00
2019-06-27T21:21:39.284Z,100.00
2019-06-27T21:24:28.216Z,100.00
2019-06-27T21:27:17.520Z,100.00
2019-06-27T21:30:07.718Z,100.00
2019-06-27T21:32:57.047Z,100.00
2019-06-27T21:35:46.543Z,100.00
2019-06-27T21:38:35.861Z,100.00
2019-06-27T21:41:25.495Z,100.00
2019-06-27T21:44:14.795Z,100.00
2019-06-27T21:47:03.652Z,100.00
2019-06-27T21:49:52.999Z,100.00
2019-06-27T21:52:42.441Z,100.00
2019-06-27T21:55:31.691Z,100.00
2019-06-27T21:58:20.946Z,100.00
2019-06-27T22:01:10.306Z,100.00
2019-06-27T22:03:59.586Z,100.00
2019-06-27T22:06:48.451Z,100.00
2019-06-27T22:09:38.012Z,100.00
2019-06-27T22:12:27.242Z,100.00
2019-06-27T22:15:16.873Z,100.00
2019-06-27T22:18:09.001Z,100.00
2019-06-27T22:20:58.345Z,100.00
2019-06-27T22:23:47.988Z,100.00
2019-06-27T22:26:37.166Z,100.00
2019-06-27T22:29:26.649Z,100.00
2019-06-27T22:32:16.143Z,100.00
2019-06-27T22:35:05.602Z,100.00
2019-06-27T22:38:12.935Z,100.00
2019-06-27T22:41:20.210Z,100.00
2019-06-27T22:44:27.305Z,100.00
2019-06-27T22:47:34.294Z,100.00
2019-06-27T22:50:36.717Z,100.00
2019-06-27T22:53:26.578Z,100.00
2019-06-27T22:56:15.843Z,100.00
2019-06-27T22:59:05.249Z,100.00
2019-06-27T23:01:54.564Z,100.00
2019-06-27T23:04:43.881Z,100.00
2019-06-27T23:07:33.391Z,100.00
2019-06-27T23:10:22.684Z,100.00
2019-06-27T23:13:12.168Z,100.00
2019-06-27T23:16:02.037Z,100.00
2019-06-27T23:18:51.388Z,100.00
2019-06-27T23:21:40.718Z,100.00
2019-06-27T23:24:30.040Z,100.00
2019-06-27T23:27:19.911Z,100.00
2019-06-27T23:30:09.493Z,100.00
2019-06-27T23:32:59.212Z,100.00
2019-06-27T23:35:48.958Z,100.00
2019-06-27T23:38:38.290Z,100.00
2019-06-27T23:41:27.735Z,100.00
2019-06-27T23:44:16.985Z,100.00
2019-06-27T23:47:06.340Z,100.00
2019-06-27T23:49:55.956Z,100.00
2019-06-27T23:52:46.871Z,100.00
2019-06-27T23:55:36.273Z,100.00
2019-06-27T23:58:25.951Z,100.00
